Time;durP1;ratioP1;P1;durP2;ratioP2;P2;SDS_P1;SDS_P2;PMS_P1;PMS_P2;Temp;Humidity;BMP_temperature;BMP_pressure;BME280_temperature;BME280_humidity;BME280_pressure;Samples;Min_cycle;Max_cycle;Signal;HPM_P1;HPM_P2
2023/06/26 00:02:13;;;;;;;14.00;2.35;;;16.90;99.90;;;;;;4993001;28;20293;-66
2023/06/26 00:04:38;;;;;;;10.25;1.80;;;17.00;99.90;;;;;;4994656;28;20254;-65
2023/06/26 00:07:05;;;;;;;9.02;2.10;;;16.80;99.90;;;;;;4994848;28;20619;-64
2023/06/26 00:09:30;;;;;;;9.35;1.80;;;16.90;99.90;;;;;;4994956;28;20171;-66
2023/06/26 00:11:56;;;;;;;12.50;2.08;;;16.80;99.90;;;;;;4994916;28;20270;-65
2023/06/26 00:14:22;;;;;;;11.98;2.10;;;16.80;99.90;;;;;;4985214;28;20180;-65
2023/06/26 00:16:50;;;;;;;11.68;2.20;;;16.80;99.90;;;;;;4991097;28;20187;-65
2023/06/26 00:19:16;;;;;;;15.80;2.30;;;16.80;99.90;;;;;;4991337;28;20168;-66
2023/06/26 00:21:46;;;;;;;13.45;2.22;;;16.80;99.90;;;;;;4975396;28;20227;-66
2023/06/26 00:24:12;;;;;;;10.40;1.88;;;16.80;99.90;;;;;;4975429;28;20628;-66
2023/06/26 00:26:38;;;;;;;13.75;1.88;;;16.80;99.90;;;;;;4975266;28;20356;-66
2023/06/26 00:29:04;;;;;;;12.18;1.90;;;16.80;99.90;;;;;;4975085;28;20179;-68
2023/06/26 00:31:30;;;;;;;12.73;1.95;;;16.80;99.90;;;;;;4979064;28;20186;-67
2023/06/26 00:33:55;;;;;;;11.93;1.70;;;16.80;99.90;;;;;;4994614;28;20698;-67
2023/06/26 00:36:22;;;;;;;12.10;2.17;;;16.80;99.90;;;;;;4994709;28;20171;-67
2023/06/26 00:38:48;;;;;;;11.60;2.10;;;16.80;99.90;;;;;;4994743;28;20639;-67
2023/06/26 00:41:14;;;;;;;13.98;2.10;;;16.70;99.90;;;;;;4994434;28;20178;-65
2023/06/26 00:43:40;;;;;;;10.15;1.83;;;;;;;;;;4994431;28;20179;-66
2023/06/26 00:46:09;;;;;;;9.90;2.20;;;16.70;99.90;;;;;;4994712;28;20226;-65
2023/06/26 00:48:35;;;;;;;12.10;2.15;;;16.70;99.90;;;;;;4994578;28;20178;-65
2023/06/26 00:51:01;;;;;;;12.82;1.77;;;16.70;99.90;;;;;;4994513;28;20553;-72
2023/06/26 00:53:27;;;;;;;14.52;3.33;;;16.70;99.90;;;;;;4994430;28;20168;-68
2023/06/26 00:55:53;;;;;;;15.15;1.90;;;16.70;99.90;;;;;;4994733;28;20262;-73
2023/06/26 00:58:22;;;;;;;13.25;2.55;;;16.60;99.90;;;;;;4995170;28;20171;-66
2023/06/26 01:00:49;;;;;;;10.52;2.08;;;16.60;99.90;;;;;;5000609;28;20266;-67
2023/06/26 01:03:15;;;;;;;16.83;1.92;;;16.60;99.90;;;;;;4999350;28;20180;-64
2023/06/26 01:05:41;;;;;;;19.10;2.40;;;16.70;99.90;;;;;;5000130;28;20210;-65
2023/06/26 01:08:08;;;;;;;12.45;2.10;;;16.70;99.90;;;;;;5005008;28;20190;-65
2023/06/26 01:10:34;;;;;;;11.80;1.98;;;16.60;99.90;;;;;;4994535;28;20178;-66
2023/06/26 01:13:00;;;;;;;15.55;2.28;;;16.60;99.90;;;;;;4993508;28;20258;-67
2023/06/26 01:15:25;;;;;;;17.08;2.20;;;16.60;99.90;;;;;;4993883;28;20194;-67
2023/06/26 01:17:51;;;;;;;11.20;2.13;;;16.60;99.90;;;;;;4993483;28;20222;-66
2023/06/26 01:20:18;;;;;;;13.80;2.53;;;16.60;99.90;;;;;;4993624;28;20175;-67
2023/06/26 01:22:57;;;;;;;19.48;2.70;;;16.60;99.90;;;;;;4993422;28;20623;-67
2023/06/26 01:25:38;;;;;;;14.77;2.33;;;16.60;99.90;;;;;;4975839;28;20206;-66
2023/06/26 01:28:05;;;;;;;17.20;2.75;;;16.60;99.90;;;;;;4993319;28;20309;-66
2023/06/26 01:30:32;;;;;;;14.55;2.10;;;16.50;99.90;;;;;;4993740;28;20237;-66
2023/06/26 01:33:00;;;;;;;13.65;2.53;;;16.50;99.90;;;;;;4993573;28;20647;-66
2023/06/26 01:35:27;;;;;;;16.15;2.72;;;16.50;99.90;;;;;;4993508;28;20656;-66
2023/06/26 01:37:53;;;;;;;14.23;2.30;;;16.50;99.90;;;;;;4993483;28;20213;-66
2023/06/26 01:40:18;;;;;;;16.67;2.50;;;;;;;;;;4993505;28;20665;-66
2023/06/26 01:42:44;;;;;;;19.88;3.10;;;16.50;99.90;;;;;;4993409;28;20176;-66
2023/06/26 01:45:23;;;;;;;15.80;2.28;;;16.50;99.90;;;;;;4993356;28;20199;-67
2023/06/26 01:47:51;;;;;;;16.55;3.08;;;16.50;99.90;;;;;;4993384;28;20206;-67
2023/06/26 01:50:22;;;;;;;19.17;2.85;;;16.50;99.90;;;;;;4993092;28;20178;-66
2023/06/26 01:52:59;;;;;;;12.85;2.70;;;16.50;99.90;;;;;;4976254;28;20175;-66
2023/06/26 01:55:46;;;;;;;18.20;2.40;;;16.50;99.90;;;;;;4993246;28;20181;-65
2023/06/26 01:58:14;;;;;;;15.43;2.28;;;16.50;99.90;;;;;;4992610;28;20254;-66
2023/06/26 02:00:40;;;;;;;18.42;2.95;;;16.50;99.90;;;;;;4992710;28;20222;-66
2023/06/26 02:03:06;;;;;;;15.75;2.15;;;16.50;99.90;;;;;;4992968;28;20167;-67
2023/06/26 02:05:32;;;;;;;19.98;3.03;;;16.50;99.90;;;;;;4992648;28;20210;-67
2023/06/26 02:07:58;;;;;;;11.93;2.40;;;16.40;99.90;;;;;;4992866;28;20215;-67
2023/06/26 02:10:24;;;;;;;18.42;3.03;;;16.50;99.90;;;;;;4992993;28;20183;-66
2023/06/26 02:12:49;;;;;;;19.33;2.72;;;16.50;99.90;;;;;;4975329;28;20206;-68
2023/06/26 02:15:15;;;;;;;20.92;2.67;;;;;;;;;;4992860;28;20199;-67
2023/06/26 02:17:41;;;;;;;17.05;2.58;;;16.50;99.90;;;;;;4992463;28;20222;-68
2023/06/26 02:20:09;;;;;;;23.75;2.60;;;16.50;99.90;;;;;;4992719;28;20171;-67
2023/06/26 02:22:35;;;;;;;14.45;2.25;;;16.50;99.90;;;;;;4992757;28;20218;-67
2023/06/26 02:25:00;;;;;;;17.65;2.47;;;16.50;99.90;;;;;;4991736;28;20690;-66
2023/06/26 02:27:26;;;;;;;18.27;2.92;;;16.40;99.90;;;;;;4992342;28;20176;-66
2023/06/26 02:29:51;;;;;;;18.17;2.72;;;16.40;99.90;;;;;;4992366;28;20179;-67
2023/06/26 02:32:17;;;;;;;21.98;2.83;;;16.40;99.90;;;;;;4988637;28;20172;-66
2023/06/26 02:34:42;;;;;;;14.38;2.15;;;16.40;99.90;;;;;;4972955;28;20180;-67
2023/06/26 02:37:10;;;;;;;15.80;2.50;;;;;;;;;;4972882;28;20187;-66
2023/06/26 02:39:36;;;;;;;24.80;2.95;;;16.40;99.90;;;;;;5009613;28;20197;-65
2023/06/26 02:42:02;;;;;;;12.88;2.22;;;16.40;99.90;;;;;;5009310;28;20557;-65
2023/06/26 02:44:27;;;;;;;17.85;3.17;;;16.50;99.90;;;;;;4992021;28;20688;-66
2023/06/26 02:46:53;;;;;;;29.63;3.35;;;16.50;99.90;;;;;;4991972;28;20183;-67
2023/06/26 02:49:18;;;;;;;17.65;2.50;;;16.50;99.90;;;;;;5007893;28;20233;-67
2023/06/26 02:51:44;;;;;;;21.00;2.78;;;16.50;99.90;;;;;;4997772;28;20221;-67
2023/06/26 02:54:10;;;;;;;15.93;2.45;;;16.50;99.90;;;;;;4991962;28;20638;-67
2023/06/26 02:56:35;;;;;;;20.40;3.10;;;16.30;99.90;;;;;;4991776;28;20179;-66
2023/06/26 02:59:01;;;;;;;18.77;2.58;;;16.30;99.90;;;;;;5003203;28;20259;-66
2023/06/26 03:01:26;;;;;;;19.60;2.70;;;16.30;99.90;;;;;;4992511;28;20182;-66
2023/06/26 03:03:52;;;;;;;18.42;3.33;;;16.30;99.90;;;;;;5011173;28;20261;-66
2023/06/26 03:06:18;;;;;;;19.98;3.10;;;16.20;99.90;;;;;;4992347;28;20207;-67
2023/06/26 03:08:44;;;;;;;18.10;3.30;;;;;;;;;;5001824;28;20182;-66
2023/06/26 03:11:09;;;;;;;13.88;2.63;;;16.10;99.90;;;;;;4996503;28;20195;-65
2023/06/26 03:13:36;;;;;;;14.07;2.78;;;16.10;99.90;;;;;;4997947;28;20178;-66
2023/06/26 03:16:03;;;;;;;11.48;2.15;;;16.10;99.90;;;;;;4996904;28;20812;-66
2023/06/26 03:18:28;;;;;;;14.10;2.90;;;16.00;99.90;;;;;;4991265;28;20350;-66
2023/06/26 03:20:56;;;;;;;15.73;2.25;;;16.00;99.90;;;;;;4994619;28;20262;-67
2023/06/26 03:23:23;;;;;;;13.45;2.40;;;16.20;99.90;;;;;;5010902;28;20187;-67
2023/06/26 03:25:49;;;;;;;16.35;3.35;;;16.10;99.90;;;;;;5004057;28;20211;-67
2023/06/26 03:28:15;;;;;;;11.82;1.80;;;16.10;99.90;;;;;;4990971;28;20171;-65
2023/06/26 03:30:41;;;;;;;15.95;2.55;;;16.00;99.90;;;;;;5005287;28;20189;-67
2023/06/26 03:33:06;;;;;;;9.35;2.20;;;16.00;99.90;;;;;;4997583;28;20171;-66
2023/06/26 03:35:32;;;;;;;12.70;2.33;;;16.10;99.90;;;;;;4991279;28;20183;-66
2023/06/26 03:37:58;;;;;;;12.48;1.83;;;16.10;99.90;;;;;;4994495;28;20437;-66
2023/06/26 03:40:24;;;;;;;12.25;2.28;;;16.10;99.90;;;;;;5006746;28;20289;-66
2023/06/26 03:42:49;;;;;;;10.65;1.83;;;16.00;99.90;;;;;;4990983;28;20685;-65
2023/06/26 03:45:15;;;;;;;12.00;2.05;;;16.00;99.90;;;;;;4993867;28;20294;-65
2023/06/26 03:47:41;;;;;;;12.02;2.08;;;16.10;99.90;;;;;;4998619;28;20181;-65
2023/06/26 03:50:07;;;;;;;9.75;2.00;;;16.10;99.90;;;;;;4974717;28;20225;-67
2023/06/26 03:52:32;;;;;;;11.05;1.83;;;16.00;99.90;;;;;;4991709;28;20167;-65
2023/06/26 03:54:58;;;;;;;8.55;1.98;;;;;;;;;;4991494;28;20527;-65
2023/06/26 03:57:24;;;;;;;17.25;2.33;;;15.90;99.90;;;;;;4991057;28;20267;-66
2023/06/26 03:59:50;;;;;;;15.43;2.67;;;15.90;99.90;;;;;;4991099;28;20270;-66
2023/06/26 04:02:16;;;;;;;11.40;2.10;;;15.90;99.90;;;;;;4973533;28;20171;-65
2023/06/26 04:04:41;;;;;;;14.02;2.67;;;15.90;99.90;;;;;;4973873;28;20168;-71
2023/06/26 04:07:07;;;;;;;13.43;2.05;;;15.90;99.90;;;;;;4991240;28;20176;-72
2023/06/26 04:09:33;;;;;;;11.45;1.83;;;15.90;99.90;;;;;;4990944;28;20540;-66
2023/06/26 04:11:58;;;;;;;11.65;2.10;;;15.90;99.90;;;;;;4991174;28;20171;-66
2023/06/26 04:14:24;;;;;;;7.03;2.10;;;15.90;99.90;;;;;;4991057;28;20175;-66
2023/06/26 04:16:49;;;;;;;13.35;2.15;;;15.90;99.90;;;;;;4990947;28;20579;-66
2023/06/26 04:19:15;;;;;;;17.02;2.30;;;15.90;99.90;;;;;;4991065;28;20643;-66
2023/06/26 04:21:41;;;;;;;17.52;2.38;;;15.90;99.90;;;;;;4991206;28;20251;-65
2023/06/26 04:24:06;;;;;;;11.55;2.17;;;16.00;99.90;;;;;;4973893;28;20635;-64
2023/06/26 04:26:32;;;;;;;13.98;2.42;;;15.90;99.90;;;;;;4991001;28;20681;-65
2023/06/26 04:28:59;;;;;;;9.90;1.83;;;16.00;99.90;;;;;;4990845;28;20529;-65
2023/06/26 04:31:24;;;;;;;11.68;1.80;;;15.90;99.90;;;;;;4991070;28;20716;-65
2023/06/26 04:33:50;;;;;;;12.65;2.00;;;15.90;99.90;;;;;;4990925;28;20176;-66
2023/06/26 04:36:17;;;;;;;17.45;2.17;;;16.00;99.90;;;;;;4991092;28;20180;-65
2023/06/26 04:38:43;;;;;;;14.52;2.40;;;16.00;99.90;;;;;;4991097;28;20257;-65
2023/06/26 04:41:08;;;;;;;14.27;2.50;;;16.00;99.90;;;;;;4990975;28;20246;-65
2023/06/26 04:43:34;;;;;;;14.93;2.30;;;16.00;99.90;;;;;;4991584;28;20186;-65
2023/06/26 04:46:00;;;;;;;14.88;2.70;;;15.90;99.90;;;;;;4990847;28;20222;-65
2023/06/26 04:48:28;;;;;;;13.73;2.13;;;16.00;99.90;;;;;;5001389;28;20205;-65
2023/06/26 04:50:55;;;;;;;18.92;2.35;;;16.00;99.90;;;;;;5004362;28;20669;-65
2023/06/26 04:53:22;;;;;;;13.25;2.60;;;16.20;99.90;;;;;;5005081;28;20183;-65
2023/06/26 04:55:49;;;;;;;12.45;2.17;;;16.10;99.90;;;;;;4994303;28;20173;-64
2023/06/26 04:58:15;;;;;;;16.08;2.60;;;16.10;99.90;;;;;;4994528;28;20182;-64
2023/06/26 05:00:42;;;;;;;12.48;1.80;;;16.20;99.90;;;;;;4994154;28;20543;-65
2023/06/26 05:03:12;;;;;;;20.83;3.30;;;16.30;99.90;;;;;;5003164;28;20574;-66
2023/06/26 05:05:37;;;;;;;14.02;2.13;;;16.30;99.90;;;;;;5003121;28;20221;-63
2023/06/26 05:08:33;;;;;;;9.98;1.80;;;16.30;99.90;;;;;;4988869;28;20183;-65
2023/06/26 05:10:58;;;;;;;13.68;2.17;;;16.40;99.90;;;;;;4973622;28;20187;-64
2023/06/26 05:13:25;;;;;;;11.77;2.53;;;16.40;99.90;;;;;;4993770;28;20615;-64
2023/06/26 05:15:52;;;;;;;8.88;1.92;;;16.40;99.90;;;;;;4993887;28;20179;-65
2023/06/26 05:18:17;;;;;;;10.55;1.70;;;16.50;99.90;;;;;;4993449;28;20298;-66
2023/06/26 05:20:43;;;;;;;10.65;1.65;;;16.50;99.90;;;;;;4993508;28;20266;-64
2023/06/26 05:23:11;;;;;;;10.85;2.45;;;16.50;99.90;;;;;;4976084;28;20179;-65
2023/06/26 05:25:37;;;;;;;15.10;1.88;;;16.60;99.90;;;;;;4993715;28;20243;-66
2023/06/26 05:28:05;;;;;;;12.77;2.60;;;16.70;99.90;;;;;;4993740;28;20194;-66
2023/06/26 05:30:34;;;;;;;12.20;2.22;;;16.50;99.90;;;;;;4993647;28;20183;-67
2023/06/26 05:33:00;;;;;;;15.75;2.20;;;16.90;99.90;;;;;;4993560;28;20183;-66
2023/06/26 05:35:29;;;;;;;9.40;1.88;;;17.00;99.90;;;;;;4993587;28;20251;-66
2023/06/26 05:37:56;;;;;;;11.63;2.10;;;17.10;99.90;;;;;;4993148;28;20190;-65
2023/06/26 05:40:22;;;;;;;11.48;1.70;;;17.00;99.90;;;;;;4993354;28;20670;-66
2023/06/26 05:42:48;;;;;;;13.30;1.98;;;17.00;99.90;;;;;;4992970;28;20187;-67
2023/06/26 05:45:14;;;;;;;8.10;1.67;;;17.10;99.90;;;;;;5004735;28;20817;-65
2023/06/26 05:47:40;;;;;;;11.48;1.65;;;17.10;99.90;;;;;;4993307;28;20210;-64
2023/06/26 05:50:08;;;;;;;11.88;2.13;;;17.00;99.90;;;;;;4993158;28;20179;-67
2023/06/26 05:52:35;;;;;;;8.85;1.88;;;;;;;;;;4993278;28;20180;-68
2023/06/26 05:55:01;;;;;;;7.00;1.80;;;16.90;99.90;;;;;;4993357;28;20298;-68
2023/06/26 05:57:28;;;;;;;8.60;1.50;;;16.90;99.90;;;;;;4993526;28;20225;-67
2023/06/26 05:59:54;;;;;;;13.35;1.85;;;17.00;99.90;;;;;;4992884;28;20179;-66
2023/06/26 06:02:20;;;;;;;9.63;1.80;;;17.00;99.90;;;;;;4993163;28;20179;-67
2023/06/26 06:04:46;;;;;;;13.93;2.22;;;17.10;99.90;;;;;;4992845;28;20183;-67
2023/06/26 06:07:12;;;;;;;12.13;1.90;;;17.20;99.90;;;;;;4992787;28;20193;-65
2023/06/26 06:09:38;;;;;;;12.20;3.00;;;17.90;99.90;;;;;;4992805;28;20774;-68
2023/06/26 06:12:05;;;;;;;10.52;1.73;;;17.20;99.90;;;;;;4992576;28;20174;-66
2023/06/26 06:14:32;;;;;;;13.50;2.05;;;17.30;99.90;;;;;;4993106;28;20175;-66
2023/06/26 06:16:57;;;;;;;12.95;2.17;;;17.30;99.90;;;;;;4992862;28;20225;-66
2023/06/26 06:19:23;;;;;;;8.10;1.92;;;17.30;99.90;;;;;;4992798;28;20179;-67
2023/06/26 06:21:49;;;;;;;10.32;1.95;;;17.30;99.90;;;;;;4993500;28;20554;-68
2023/06/26 06:24:14;;;;;;;9.80;1.73;;;17.40;99.90;;;;;;4992927;28;20636;-66
2023/06/26 06:26:40;;;;;;;8.40;1.90;;;17.40;99.90;;;;;;4996653;28;20679;-62
2023/06/26 06:29:05;;;;;;;11.93;2.20;;;17.40;99.90;;;;;;4977230;28;20199;-66
2023/06/26 06:31:31;;;;;;;9.90;1.85;;;17.60;99.90;;;;;;4993066;28;20175;-64
2023/06/26 06:33:57;;;;;;;9.23;1.75;;;17.60;99.90;;;;;;4992740;28;20507;-65
2023/06/26 06:36:23;;;;;;;10.40;2.10;;;17.80;99.90;;;;;;4992667;28;20179;-66
2023/06/26 06:38:48;;;;;;;9.93;2.05;;;17.90;99.90;;;;;;4992434;28;20617;-66
2023/06/26 06:41:15;;;;;;;11.55;1.88;;;17.90;99.90;;;;;;4992185;28;20177;-65
2023/06/26 06:43:41;;;;;;;10.88;1.40;;;18.00;99.90;;;;;;4992175;28;20189;-66
2023/06/26 06:46:06;;;;;;;13.40;1.92;;;18.10;99.90;;;;;;4993035;28;20210;-65
2023/06/26 06:48:32;;;;;;;10.75;1.75;;;18.20;99.90;;;;;;4998718;28;20179;-66
2023/06/26 06:50:58;;;;;;;10.00;1.73;;;18.20;99.90;;;;;;4992672;28;20183;-66
2023/06/26 06:53:23;;;;;;;8.27;1.83;;;18.20;99.90;;;;;;4995188;28;20594;-66
2023/06/26 06:55:49;;;;;;;10.52;1.70;;;18.00;99.90;;;;;;4992078;28;20278;-66
2023/06/26 06:58:22;;;;;;;6.63;1.63;;;17.90;99.90;;;;;;4991878;28;20199;-65
2023/06/26 07:00:48;;;;;;;10.10;1.65;;;17.90;99.90;;;;;;4991893;28;20179;-66
2023/06/26 07:03:14;;;;;;;12.02;1.90;;;17.90;99.90;;;;;;4991189;28;20258;-66
2023/06/26 07:05:41;;;;;;;8.43;1.70;;;18.00;99.90;;;;;;4991737;28;20302;-65
2023/06/26 07:08:07;;;;;;;12.40;2.05;;;18.00;99.90;;;;;;4991638;28;20172;-66
2023/06/26 07:10:33;;;;;;;6.15;1.75;;;18.00;99.90;;;;;;4991072;28;20261;-66
2023/06/26 07:12:58;;;;;;;11.10;1.60;;;18.10;99.90;;;;;;4988895;28;20273;-65
2023/06/26 07:15:24;;;;;;;13.48;2.30;;;18.20;99.90;;;;;;4982094;28;20639;-66
2023/06/26 07:17:50;;;;;;;10.40;1.92;;;18.00;99.90;;;;;;4991340;28;20215;-64
2023/06/26 07:20:15;;;;;;;7.00;1.75;;;18.00;99.90;;;;;;4991700;28;20167;-75
2023/06/26 07:22:42;;;;;;;14.23;1.98;;;17.80;99.90;;;;;;4991899;28;20650;-72
2023/06/26 07:25:09;;;;;;;14.25;2.03;;;17.90;99.90;;;;;;4991558;28;20285;-66
2023/06/26 07:27:35;;;;;;;13.57;2.08;;;18.00;99.90;;;;;;4987075;28;20274;-66
2023/06/26 07:30:01;;;;;;;16.60;1.70;;;17.90;99.90;;;;;;4996205;28;20214;-68
2023/06/26 07:32:27;;;;;;;16.80;2.10;;;18.00;99.90;;;;;;4998788;28;20283;-67
2023/06/26 07:34:52;;;;;;;13.88;2.22;;;18.20;99.90;;;;;;4991159;28;20174;-68
2023/06/26 07:37:18;;;;;;;6.82;2.08;;;18.70;99.90;;;;;;4991834;28;20190;-67
2023/06/26 07:39:43;;;;;;;10.68;1.90;;;18.50;99.90;;;;;;4992105;28;20245;-68
2023/06/26 07:42:09;;;;;;;14.55;2.10;;;18.40;99.90;;;;;;4990887;28;20222;-68
2023/06/26 07:44:35;;;;;;;8.13;2.45;;;18.60;99.90;;;;;;4985529;28;20171;-68
2023/06/26 07:47:00;;;;;;;13.15;2.42;;;18.70;99.90;;;;;;4990400;28;20222;-69
2023/06/26 07:49:26;;;;;;;12.15;2.17;;;18.80;99.90;;;;;;4990852;28;20175;-68
2023/06/26 07:51:51;;;;;;;15.90;2.17;;;18.90;99.90;;;;;;4991101;28;20624;-68
2023/06/26 07:54:17;;;;;;;6.65;1.83;;;;;;;;;;4991669;28;20163;-69
2023/06/26 07:56:56;;;;;;;13.45;1.75;;;18.80;99.90;;;;;;4991310;28;20175;-67
2023/06/26 07:59:23;;;;;;;16.60;2.00;;;18.80;99.90;;;;;;4990828;28;20167;-67
2023/06/26 08:01:52;;;;;;;11.98;2.25;;;18.90;99.90;;;;;;4994823;28;20172;-67
2023/06/26 08:04:20;;;;;;;13.23;1.90;;;19.00;99.90;;;;;;4993838;28;20174;-66
2023/06/26 08:06:48;;;;;;;9.68;1.85;;;19.00;99.90;;;;;;5010810;28;20704;-65
2023/06/26 08:09:14;;;;;;;9.48;1.80;;;18.70;99.90;;;;;;5010792;28;20173;-72
2023/06/26 08:11:39;;;;;;;12.30;2.03;;;18.90;99.90;;;;;;4992289;28;20261;-72
2023/06/26 08:14:05;;;;;;;10.18;1.90;;;19.00;99.90;;;;;;5009315;28;20174;-71
2023/06/26 08:16:31;;;;;;;8.57;1.95;;;19.10;99.90;;;;;;5010845;28;20179;-70
2023/06/26 08:18:56;;;;;;;12.65;2.60;;;19.20;99.90;;;;;;5010751;28;20701;-69
2023/06/26 08:21:22;;;;;;;10.00;2.10;;;;;;;;;;5010689;28;20258;-72
2023/06/26 08:23:48;;;;;;;14.75;2.42;;;19.40;99.90;;;;;;5003735;28;20748;-72
2023/06/26 08:26:14;;;;;;;12.43;2.65;;;19.40;99.90;;;;;;4994332;28;20214;-72
2023/06/26 08:28:39;;;;;;;10.85;2.15;;;19.60;99.90;;;;;;5005613;28;20175;-71
2023/06/26 08:31:05;;;;;;;11.00;2.45;;;19.60;99.90;;;;;;4994556;28;20175;-73
2023/06/26 08:33:31;;;;;;;12.35;2.83;;;19.60;99.90;;;;;;5006515;28;20265;-67
2023/06/26 08:35:56;;;;;;;13.02;2.67;;;19.50;99.90;;;;;;5014297;28;20664;-68
2023/06/26 08:38:22;;;;;;;13.90;2.63;;;19.80;99.90;;;;;;5013545;28;20170;-64
2023/06/26 08:40:48;;;;;;;13.25;2.35;;;19.50;99.90;;;;;;4997026;28;20650;-66
2023/06/26 08:43:14;;;;;;;14.35;2.47;;;19.50;99.90;;;;;;4994520;28;20251;-64
2023/06/26 08:45:39;;;;;;;13.30;2.53;;;19.50;99.90;;;;;;4994540;28;20207;-67
2023/06/26 08:48:08;;;;;;;15.00;2.58;;;19.40;99.90;;;;;;4994544;28;20179;-66
2023/06/26 08:50:35;;;;;;;11.18;2.50;;;19.40;99.90;;;;;;5008065;28;20185;-65
2023/06/26 08:53:21;;;;;;;13.85;2.00;;;19.40;99.90;;;;;;5013988;28;20253;-65
2023/06/26 08:55:51;;;;;;;15.85;2.28;;;19.50;99.90;;;;;;5014038;28;20170;-66
2023/06/26 08:58:17;;;;;;;13.65;2.25;;;19.50;99.90;;;;;;5013434;28;20642;-64
2023/06/26 09:00:43;;;;;;;14.02;1.90;;;19.70;99.90;;;;;;4997448;28;20226;-65
2023/06/26 09:03:10;;;;;;;43.55;4.15;;;19.60;99.90;;;;;;4981325;28;20186;-65
2023/06/26 09:05:36;;;;;;;8.75;2.00;;;19.60;99.90;;;;;;4976485;28;20283;-65
2023/06/26 09:08:01;;;;;;;15.05;2.70;;;19.80;99.90;;;;;;4993961;28;20254;-75
2023/06/26 09:10:27;;;;;;;14.68;1.85;;;19.90;99.90;;;;;;4976373;28;20233;-72
2023/06/26 09:12:56;;;;;;;18.23;2.85;;;19.90;99.90;;;;;;5009286;28;20638;-71
2023/06/26 09:15:22;;;;;;;14.02;2.40;;;19.80;99.90;;;;;;4974365;28;20168;-70
2023/06/26 09:17:48;;;;;;;8.32;1.70;;;19.90;99.90;;;;;;5010274;28;20238;-70
2023/06/26 09:20:15;;;;;;;9.23;1.48;;;19.80;99.90;;;;;;4995205;28;20179;-70
2023/06/26 09:22:43;;;;;;;12.77;1.50;;;19.80;99.90;;;;;;5002984;28;20657;-69
2023/06/26 09:25:09;;;;;;;8.60;1.45;;;19.80;99.90;;;;;;4993854;28;20211;-70
2023/06/26 09:27:35;;;;;;;8.20;1.27;;;19.90;99.90;;;;;;4993690;28;20175;-70
2023/06/26 09:30:03;;;;;;;12.27;1.60;;;20.20;99.90;;;;;;4993558;28;20221;-70
2023/06/26 09:32:29;;;;;;;14.98;1.60;;;19.90;99.90;;;;;;5000982;28;20194;-70
2023/06/26 09:34:55;;;;;;;13.88;1.88;;;20.00;99.90;;;;;;5012907;28;20272;-70
2023/06/26 09:37:22;;;;;;;7.15;1.08;;;20.00;99.90;;;;;;5012351;28;20186;-72
2023/06/26 09:39:48;;;;;;;5.32;1.05;;;20.00;99.90;;;;;;5012549;28;20609;-70
2023/06/26 09:42:14;;;;;;;7.47;1.30;;;20.00;99.90;;;;;;4989766;28;20647;-68
2023/06/26 09:44:47;;;;;;;8.85;1.77;;;19.90;99.90;;;;;;4993338;28;20175;-67
2023/06/26 09:47:16;;;;;;;14.32;1.70;;;20.00;99.90;;;;;;4995274;28;20190;-70
2023/06/26 09:49:42;;;;;;;6.85;1.50;;;20.10;99.90;;;;;;4973880;28;20175;-67
2023/06/26 09:52:09;;;;;;;10.38;1.77;;;20.10;99.90;;;;;;5005644;28;20183;-67
2023/06/26 09:54:35;;;;;;;9.93;1.42;;;20.40;99.90;;;;;;4993164;28;20175;-66
2023/06/26 09:57:08;;;;;;;16.42;2.70;;;20.40;99.90;;;;;;4986739;28;20198;-64
2023/06/26 09:59:34;;;;;;;15.25;2.03;;;20.60;99.90;;;;;;5006094;28;20179;-68
2023/06/26 10:02:00;;;;;;;15.95;2.33;;;20.80;99.90;;;;;;4976275;28;20207;-69
2023/06/26 10:04:26;;;;;;;6.05;1.35;;;20.50;99.90;;;;;;4993672;28;20222;-69
2023/06/26 10:06:55;;;;;;;25.85;2.88;;;20.60;99.90;;;;;;4992909;28;20211;-67
2023/06/26 10:09:22;;;;;;;8.35;1.45;;;20.30;99.90;;;;;;4995604;28;20183;-67
2023/06/26 10:12:07;;;;;;;8.48;1.13;;;20.40;99.90;;;;;;5005981;28;20175;-67
2023/06/26 10:14:38;;;;;;;12.05;1.70;;;20.60;99.90;;;;;;4995169;28;20175;-66
2023/06/26 10:17:07;;;;;;;11.23;1.77;;;20.70;99.90;;;;;;4992764;28;20176;-66
2023/06/26 10:19:34;;;;;;;8.95;1.48;;;20.70;99.90;;;;;;5004850;28;20244;-67
2023/06/26 10:22:02;;;;;;;6.82;1.58;;;20.90;99.90;;;;;;5012013;28;20261;-66
2023/06/26 10:24:33;;;;;;;5.40;1.13;;;21.00;99.90;;;;;;5005894;28;20193;-67
2023/06/26 10:27:14;;;;;;;7.90;1.13;;;21.00;99.90;;;;;;5012059;28;20268;-67
2023/06/26 10:29:41;;;;;;;18.77;1.60;;;20.90;99.90;;;;;;5006009;28;20182;-67
2023/06/26 10:32:08;;;;;;;7.22;1.45;;;21.50;99.90;;;;;;4995585;28;20183;-67
2023/06/26 10:34:34;;;;;;;9.40;1.75;;;21.80;99.90;;;;;;5006158;28;20179;-67
2023/06/26 10:37:04;;;;;;;10.85;1.63;;;21.40;99.90;;;;;;4993737;28;20233;-67
2023/06/26 10:39:49;;;;;;;7.22;1.50;;;22.00;99.90;;;;;;5011075;28;20221;-67
2023/06/26 10:42:17;;;;;;;10.32;1.42;;;22.30;99.90;;;;;;5011605;28;20173;-66
2023/06/26 10:44:44;;;;;;;15.32;1.77;;;22.50;99.90;;;;;;5011254;28;20166;-66
2023/06/26 10:47:11;;;;;;;6.25;1.10;;;22.40;99.90;;;;;;5009607;28;20218;-66
2023/06/26 10:49:42;;;;;;;9.90;1.55;;;22.00;99.90;;;;;;5009764;28;20644;-66
2023/06/26 10:52:08;;;;;;;5.88;1.40;;;21.60;99.90;;;;;;5010434;28;20186;-67
2023/06/26 10:54:35;;;;;;;7.20;1.40;;;21.80;99.90;;;;;;4993267;28;20182;-67
2023/06/26 10:57:02;;;;;;;5.90;1.15;;;21.70;99.90;;;;;;5010940;28;20208;-67
2023/06/26 10:59:29;;;;;;;10.35;1.65;;;22.30;99.90;;;;;;5010996;28;20697;-66
2023/06/26 11:02:04;;;;;;;5.85;1.30;;;22.80;99.90;;;;;;5010898;28;20174;-67
2023/06/26 11:04:41;;;;;;;9.13;1.08;;;22.40;99.90;;;;;;5011137;28;20209;-66
2023/06/26 11:07:19;;;;;;;6.00;1.13;;;22.80;99.90;;;;;;4998694;28;20211;-67
2023/06/26 11:09:58;;;;;;;9.20;1.10;;;22.90;99.90;;;;;;4989393;28;20225;-68
2023/06/26 11:12:42;;;;;;;8.98;1.50;;;22.90;99.90;;;;;;4989704;28;20186;-67
2023/06/26 11:15:13;;;;;;;4.85;1.05;;;23.30;99.90;;;;;;4991309;28;20266;-67
2023/06/26 11:17:40;;;;;;;7.57;1.45;;;23.10;99.90;;;;;;4991639;28;20227;-67
2023/06/26 11:20:10;;;;;;;8.63;1.35;;;23.30;99.90;;;;;;4990321;28;20213;-67
2023/06/26 11:22:38;;;;;;;6.50;1.20;;;23.60;99.90;;;;;;4986085;28;20176;-67
2023/06/26 11:25:05;;;;;;;5.35;1.05;;;23.70;99.90;;;;;;4972010;28;20207;-67
2023/06/26 11:27:38;;;;;;;9.35;1.50;;;23.90;99.90;;;;;;4966682;28;20539;-67
2023/06/26 11:30:05;;;;;;;5.45;1.25;;;24.10;99.90;;;;;;4990456;28;20167;-67
2023/06/26 11:32:32;;;;;;;15.10;1.42;;;23.90;99.90;;;;;;4990993;28;20244;-67
2023/06/26 11:34:58;;;;;;;4.93;1.50;;;23.50;99.90;;;;;;4991204;28;20600;-66
2023/06/26 11:37:25;;;;;;;8.45;1.40;;;23.60;99.90;;;;;;4990961;28;20187;-66
2023/06/26 11:39:51;;;;;;;3.95;1.25;;;23.60;99.90;;;;;;4977507;28;20182;-66
2023/06/26 11:42:20;;;;;;;7.88;1.50;;;23.60;99.90;;;;;;4971646;28;20686;-67
2023/06/26 11:44:46;;;;;;;5.90;1.48;;;23.90;99.90;;;;;;4970872;28;20174;-65
2023/06/26 11:47:19;;;;;;;7.70;1.20;;;23.30;99.90;;;;;;4970282;28;20212;-66
2023/06/26 11:49:46;;;;;;;5.45;1.30;;;23.10;99.90;;;;;;4954369;28;20284;-67
2023/06/26 11:52:13;;;;;;;6.32;1.25;;;;;;;;;;4972161;28;20180;-67
2023/06/26 11:54:39;;;;;;;8.68;1.10;;;22.90;99.90;;;;;;4971928;28;20221;-67
2023/06/26 11:57:05;;;;;;;12.10;1.98;;;;;;;;;;4972091;28;20180;-67
2023/06/26 11:59:39;;;;;;;8.23;1.27;;;23.00;99.90;;;;;;4975879;28;20203;-66
2023/06/26 12:02:10;;;;;;;6.65;1.50;;;22.80;99.90;;;;;;4975999;28;20355;-66
2023/06/26 12:04:38;;;;;;;8.25;1.48;;;22.70;99.90;;;;;;4974382;28;20266;-67
2023/06/26 12:07:07;;;;;;;10.48;1.20;;;22.70;99.90;;;;;;4975718;28;20381;-68
2023/06/26 12:09:34;;;;;;;8.40;1.42;;;21.90;99.90;;;;;;4975792;28;20249;-67
2023/06/26 12:12:01;;;;;;;6.38;1.17;;;22.10;99.90;;;;;;4958200;28;20274;-67
2023/06/26 12:14:30;;;;;;;7.82;1.40;;;22.10;99.90;;;;;;4975624;28;20167;-68
2023/06/26 12:16:56;;;;;;;8.77;1.92;;;21.80;99.90;;;;;;4975549;28;20168;-67
2023/06/26 12:19:28;;;;;;;10.45;1.67;;;21.90;99.90;;;;;;4975469;28;20643;-66
2023/06/26 12:21:56;;;;;;;11.90;1.40;;;22.60;99.90;;;;;;4975467;28;20262;-66
2023/06/26 12:24:22;;;;;;;8.20;1.75;;;22.90;99.90;;;;;;4975797;28;20258;-67
2023/06/26 12:26:55;;;;;;;8.50;1.48;;;23.00;99.90;;;;;;4975180;28;20227;-67
2023/06/26 12:29:21;;;;;;;13.30;1.73;;;23.30;99.90;;;;;;4975963;28;20180;-67
2023/06/26 12:31:54;;;;;;;6.28;1.70;;;23.50;99.90;;;;;;4976577;28;20240;-67
2023/06/26 12:34:27;;;;;;;6.95;1.83;;;23.50;99.90;;;;;;4976371;28;20198;-66
2023/06/26 12:36:53;;;;;;;9.88;1.67;;;23.40;99.90;;;;;;4975189;28;20178;-66
2023/06/26 12:39:24;;;;;;;11.00;1.50;;;23.80;99.90;;;;;;4975120;28;20176;-66
2023/06/26 12:41:55;;;;;;;5.95;1.50;;;24.00;99.90;;;;;;4975305;28;20184;-66
2023/06/26 12:44:22;;;;;;;10.15;2.35;;;24.50;99.90;;;;;;4975395;28;20187;-66